FKKDFKYS

Guest
Details From FKKD - Douala
To FKYS - YAOUNDE NSIMALEN
Flight Number -
Tags generated
Created
Modified
Stats Distance 111 nm / 206 km
Max Altitude 9,500 ft / 2,896 m
Waypoints 3
Social Downloads 0
Likes 0
Share VATSIM

Download

Looking for another format? Having issues loading an existing format? Contact us
Advertisement - Login to hide

Notes

Basic altitude profile: - Ascent Rate: 2500ft/min - Ascent Speed: 250kts - Cruise Altitude: 19000ft - Cruise Speed: 300kts - Descent Rate: 1500ft/min - Descent Speed: 250kts Options: - Use NATs: yes - Use PACOTS: yes - Use low airways: yes - Use high airways: yes

Route

FKKD ENUGI FKYS

ID Type Via Altitude Latitude Longitude Leg Dist Tot Dist Heading (true) Name
O FKKD APT - 0 ft / 0 m 4.01421˚ 9.71654˚ - 0 nm - Douala
ENUGI FIX - 9,500 ft / 2,896 m 3.83556˚ 10.81667˚ 66 nm 66 nm 99° / 99° -
O FKYS APT - 0 ft / 0 m 3.72255˚ 11.55327˚ 44 nm 111 nm 99° / 99° YAOUNDE NSIMALEN

Altitude Profile

Advertisement - Login to hide

FKKD

Details ICAO FKKD (DLA)
Name Douala
Region Cameroon
Timezone Africa/Douala (UTC+1.0)
Stats Elevation 33 ft / 10 m (AMSL)
Location 4.014208° 9.716538°
Runways 2
Magnetic Variation 1.053° W

METAR

FKKD 250200Z VRB03KT 8000 TS BKN013 FEW015CB 23/23 Q1009 NOSIG

Decode

TAF

TAF FKKD 242300Z 2500/2606 23003KT 9999 TS BKN013 FEW016CB PROB40 TEMPO 2500/2502 4000 -TSRA BECMG 2506/2508 NSW BKN016 FEW020CB

Decode

Departure Runways

ID Width Length Bearing (true) Bearing (mag) Surface Threshold Offset Overrun Length
03 147 ft / 45 m 8,210 ft / 2,502 m 27.00° 28.05° Asphalt 350 ft / 107 m 0 ft / 0 m
12 148 ft / 45 m 9,363 ft / 2,854 m 116.94° 117.99° Asphalt 0 ft / 0 m 164 ft / 50 m
21 147 ft / 45 m 8,210 ft / 2,502 m 207.00° 208.05° Asphalt 350 ft / 107 m 0 ft / 0 m
30 148 ft / 45 m 9,363 ft / 2,854 m 296.94° 297.99° Asphalt 0 ft / 0 m 164 ft / 50 m

FKYS

Details ICAO FKYS (NSI)
Name YAOUNDE NSIMALEN
Region Cameroon
Timezone Africa/Douala (UTC+1.0)
Stats Elevation 2,278 ft / 694 m (AMSL)
Location 3.722554° 11.553270°
Runways 1
Magnetic Variation 0.637° W

METAR

FKYS 250200Z /////KT 9999 SCT003 BKN006 21/20 Q1014 NOSIG

Decode

TAF

TAF FKYS 242300Z 2500/2524 24003KT SCT006 PROB40 2504/2506 3000 BR BECMG 2507/2509 BKN016

Decode

Destination Runways

ID Width Length Bearing (true) Bearing (mag) Surface Threshold Offset Overrun Length
01 148 ft / 45 m 11,220 ft / 3,420 m 9.87° 10.51° Asphalt 0 ft / 0 m 200 ft / 61 m
19 148 ft / 45 m 11,220 ft / 3,420 m 189.87° 190.51° Asphalt 0 ft / 0 m 200 ft / 61 m

Popular Alternatives